createdAt,value
2023-01-23T00:02:13.593Z,34.77
2023-01-23T00:05:16.819Z,30.43
2023-01-23T00:08:21.651Z,39.37
2023-01-23T00:11:28.446Z,32.23
2023-01-23T00:14:32.827Z,30.87
2023-01-23T00:17:35.877Z,38.00
2023-01-23T00:20:39.123Z,32.50
2023-01-23T00:23:44.294Z,39.37
2023-01-23T00:26:47.521Z,37.33
2023-01-23T00:29:55.418Z,29.93
2023-01-23T00:32:58.530Z,32.97
2023-01-23T00:36:03.097Z,36.50
2023-01-23T00:39:15.485Z,38.77
2023-01-23T00:42:20.324Z,37.00
2023-01-23T00:45:25.087Z,38.40
2023-01-23T00:48:28.263Z,33.83
2023-01-23T00:51:32.705Z,32.93
2023-01-23T00:54:38.268Z,34.97
2023-01-23T00:57:41.347Z,35.33
2023-01-23T01:00:45.795Z,36.10
2023-01-23T01:03:48.958Z,39.13
2023-01-23T01:06:51.952Z,35.93
2023-01-23T01:09:57.734Z,36.47
2023-01-23T01:13:03.582Z,36.60
2023-01-23T01:16:09.454Z,36.23
2023-01-23T01:19:16.648Z,34.77
2023-01-23T01:22:20.130Z,36.37
2023-01-23T01:25:23.599Z,39.00
2023-01-23T01:28:30.234Z,35.57
2023-01-23T01:31:36.050Z,39.80
2023-01-23T01:34:39.108Z,34.70
2023-01-23T01:37:42.838Z,34.03
2023-01-23T01:40:48.097Z,37.57
2023-01-23T01:43:53.306Z,32.80
2023-01-23T01:46:58.262Z,37.97
2023-01-23T01:50:06.065Z,39.27
2023-01-23T01:53:09.263Z,39.27
2023-01-23T01:56:15.332Z,37.87
2023-01-23T01:59:20.052Z,42.17
2023-01-23T02:02:29.712Z,37.30
2023-01-23T02:05:37.609Z,35.63
2023-01-23T02:08:49.116Z,33.37
2023-01-23T02:11:52.366Z,34.00
2023-01-23T02:14:59.554Z,39.20
2023-01-23T02:18:04.151Z,35.20
2023-01-23T02:21:10.030Z,37.90
2023-01-23T02:24:27.025Z,38.13
2023-01-23T02:27:31.391Z,37.60
2023-01-23T02:30:34.713Z,35.17
2023-01-23T02:33:53.934Z,36.27
2023-01-23T02:36:57.451Z,36.90
2023-01-23T02:40:02.772Z,43.40
2023-01-23T02:43:16.041Z,37.27
2023-01-23T02:46:26.630Z,38.47
2023-01-23T02:49:30.568Z,38.37
2023-01-23T02:52:34.232Z,34.20
2023-01-23T02:55:39.344Z,40.27
2023-01-23T02:59:02.209Z,36.23
2023-01-23T03:02:06.204Z,42.07
2023-01-23T03:05:10.580Z,36.87
2023-01-23T03:08:13.565Z,39.33
2023-01-23T03:11:18.622Z,36.63
2023-01-23T03:14:24.997Z,32.80
2023-01-23T03:17:29.182Z,40.30
2023-01-23T03:20:39.153Z,34.80
2023-01-23T03:23:44.638Z,36.90
2023-01-23T03:26:49.706Z,35.13
2023-01-23T03:30:12.388Z,34.00
2023-01-23T03:33:16.291Z,33.90
2023-01-23T03:36:19.341Z,34.73
2023-01-23T03:39:40.374Z,36.33
2023-01-23T03:42:43.730Z,36.63
2023-01-23T03:45:53.179Z,40.23
2023-01-23T03:48:56.645Z,34.90
2023-01-23T03:52:00.891Z,40.40
2023-01-23T03:55:06.534Z,32.87
2023-01-23T03:58:10.813Z,38.97
2023-01-23T04:01:18.579Z,36.90
2023-01-23T04:04:22.097Z,34.37
2023-01-23T04:07:25.178Z,33.70
2023-01-23T04:10:29.014Z,32.53
2023-01-23T04:13:38.639Z,36.90
2023-01-23T04:16:45.633Z,38.57
2023-01-23T04:19:49.384Z,38.83
2023-01-23T04:22:52.404Z,35.70
2023-01-23T04:25:59.589Z,34.40
2023-01-23T04:29:02.774Z,37.70
2023-01-23T04:32:09.547Z,36.50
2023-01-23T04:35:16.840Z,38.23
2023-01-23T04:38:20.288Z,38.90
2023-01-23T04:41:27.167Z,35.23
2023-01-23T04:44:37.532Z,32.33
2023-01-23T04:48:02.079Z,38.13
2023-01-23T04:51:07.791Z,39.27
2023-01-23T04:54:11.518Z,37.07
2023-01-23T04:57:14.573Z,43.13
2023-01-23T05:00:20.135Z,36.53
2023-01-23T05:03:24.643Z,39.60
2023-01-23T05:06:28.199Z,37.57
2023-01-23T05:09:33.238Z,38.80
2023-01-23T05:12:36.273Z,39.67
2023-01-23T05:15:40.194Z,37.80
2023-01-23T05:18:45.066Z,38.00
2023-01-23T05:21:48.254Z,40.23
2023-01-23T05:24:54.264Z,40.27
2023-01-23T05:27:57.593Z,36.93
2023-01-23T05:31:01.439Z,39.90
2023-01-23T05:34:15.424Z,40.10
2023-01-23T05:37:18.452Z,36.47
2023-01-23T05:40:56.395Z,43.63
2023-01-23T05:44:25.336Z,38.63
2023-01-23T05:47:32.459Z,42.37
2023-01-23T05:50:37.596Z,37.90
2023-01-23T05:53:40.647Z,39.87
2023-01-23T05:56:44.330Z,39.10
2023-01-23T06:00:07.854Z,36.10
2023-01-23T06:03:43.111Z,37.87
2023-01-23T06:07:10.425Z,39.50
2023-01-23T06:10:13.592Z,36.03
2023-01-23T06:13:16.702Z,41.50
2023-01-23T06:16:19.954Z,42.47
2023-01-23T06:19:23.117Z,41.07
2023-01-23T06:22:30.064Z,37.93
2023-01-23T06:25:39.763Z,40.57
2023-01-23T06:28:45.700Z,38.23
2023-01-23T06:31:49.581Z,39.50
2023-01-23T06:34:54.210Z,39.20
2023-01-23T06:37:58.610Z,35.57
2023-01-23T06:41:02.071Z,38.93
2023-01-23T06:44:22.444Z,39.13
2023-01-23T06:47:26.646Z,36.97
2023-01-23T06:50:35.014Z,41.30
2023-01-23T06:53:39.712Z,32.80
2023-01-23T06:56:42.969Z,36.27
2023-01-23T06:59:48.452Z,39.13
2023-01-23T07:02:58.825Z,35.90
2023-01-23T07:06:06.591Z,36.43
2023-01-23T07:09:11.345Z,40.13
2023-01-23T07:12:14.885Z,38.50
2023-01-23T07:15:18.707Z,40.93
2023-01-23T07:18:22.860Z,41.83
2023-01-23T07:21:26.288Z,39.20
2023-01-23T07:24:32.664Z,40.87
2023-01-23T07:27:36.273Z,41.23
2023-01-23T07:31:25.533Z,38.17
2023-01-23T07:34:25.221Z,39.67
2023-01-23T07:37:28.225Z,40.93
2023-01-23T07:40:32.645Z,42.30
2023-01-23T07:43:35.701Z,41.30
2023-01-23T07:46:38.837Z,37.97
2023-01-23T07:49:42.208Z,43.47
2023-01-23T07:52:45.377Z,39.53
2023-01-23T07:55:49.723Z,44.13
2023-01-23T07:58:54.750Z,42.00
2023-01-23T08:02:02.026Z,43.23
2023-01-23T08:05:08.633Z,41.30
2023-01-23T08:08:13.781Z,37.93
2023-01-23T08:11:18.453Z,44.57
2023-01-23T08:14:24.864Z,41.30
2023-01-23T08:17:28.070Z,41.33
2023-01-23T08:20:31.087Z,40.50
2023-01-23T08:23:35.875Z,39.77
2023-01-23T08:26:41.778Z,38.73
2023-01-23T08:29:45.510Z,43.10
2023-01-23T08:32:51.863Z,46.50
2023-01-23T08:35:58.411Z,41.93
2023-01-23T08:39:01.576Z,42.73
2023-01-23T08:42:06.200Z,40.70
2023-01-23T08:45:10.742Z,40.73
2023-01-23T08:48:13.974Z,44.77
2023-01-23T08:51:17.286Z,42.23
2023-01-23T08:54:25.725Z,41.03
2023-01-23T08:57:31.180Z,43.03
2023-01-23T09:00:35.309Z,41.33
2023-01-23T09:03:39.364Z,40.20
2023-01-23T09:06:42.700Z,42.33
2023-01-23T09:09:45.897Z,40.57
2023-01-23T09:12:52.742Z,44.23
2023-01-23T09:15:55.757Z,39.33
2023-01-23T09:18:58.732Z,38.13
2023-01-23T09:22:03.496Z,44.03
2023-01-23T09:25:08.316Z,39.17
2023-01-23T09:28:12.959Z,39.53
2023-01-23T09:31:16.543Z,39.30
2023-01-23T09:34:20.826Z,38.20
2023-01-23T09:37:24.269Z,36.50
2023-01-23T09:40:32.571Z,34.47
2023-01-23T09:43:46.407Z,36.37
2023-01-23T09:46:52.607Z,41.23
2023-01-23T09:50:00.919Z,36.63
2023-01-23T09:53:13.157Z,39.70
2023-01-23T09:56:30.564Z,40.10
2023-01-23T09:59:53.968Z,39.20
2023-01-23T10:03:04.732Z,37.10
2023-01-23T10:06:23.499Z,38.57
2023-01-23T10:09:43.335Z,37.57
2023-01-23T10:12:58.981Z,36.63
2023-01-23T10:16:21.799Z,39.63
2023-01-23T10:19:42.959Z,33.90
2023-01-23T10:22:55.586Z,41.03
2023-01-23T10:25:59.505Z,40.07
2023-01-23T10:29:13.090Z,40.40
2023-01-23T10:32:28.941Z,38.23
2023-01-23T10:35:41.190Z,37.97
2023-01-23T10:38:53.370Z,37.30
2023-01-23T10:42:02.565Z,37.57
2023-01-23T10:45:08.584Z,40.73
2023-01-23T10:48:40.351Z,35.17
2023-01-23T10:51:48.220Z,38.30
2023-01-23T10:54:51.164Z,36.53
2023-01-23T10:57:56.985Z,38.37
2023-01-23T11:01:04.856Z,39.13
2023-01-23T11:04:20.967Z,43.87
2023-01-23T11:07:25.676Z,43.27
2023-01-23T11:10:53.348Z,38.37
2023-01-23T11:14:12.577Z,36.93
2023-01-23T11:17:21.416Z,38.93
2023-01-23T11:20:31.309Z,37.40
2023-01-23T11:23:35.569Z,39.13
2023-01-23T11:26:39.904Z,35.20
2023-01-23T11:30:14.685Z,37.20
2023-01-23T11:33:35.852Z,34.10
2023-01-23T11:36:53.551Z,35.27
2023-01-23T11:40:04.863Z,39.40
2023-01-23T11:43:15.167Z,42.60
2023-01-23T11:46:38.177Z,39.97
2023-01-23T11:50:04.305Z,34.83
2023-01-23T11:53:27.875Z,39.70
2023-01-23T11:56:57.649Z,38.73
2023-01-23T12:00:17.465Z,39.00
2023-01-23T12:04:19.370Z,36.77
2023-01-23T12:08:03.831Z,37.40
2023-01-23T12:11:16.762Z,30.67
2023-01-23T12:14:27.773Z,31.70
2023-01-23T12:17:43.763Z,27.93
2023-01-23T12:21:01.314Z,31.57
2023-01-23T12:24:19.301Z,26.97
2023-01-23T12:27:37.509Z,30.13
2023-01-23T12:31:20.244Z,30.20
2023-01-23T12:34:46.450Z,35.13
2023-01-23T12:38:07.926Z,28.90
2023-01-23T12:41:22.287Z,28.17
2023-01-23T12:44:36.040Z,28.90
2023-01-23T12:47:44.270Z,28.27
2023-01-23T12:50:52.811Z,26.97
2023-01-23T12:53:59.724Z,27.03
2023-01-23T12:57:05.947Z,29.50
2023-01-23T13:00:24.323Z,33.40
2023-01-23T13:03:58.634Z,28.63
2023-01-23T13:07:23.636Z,27.87
2023-01-23T13:11:16.411Z,25.93
2023-01-23T13:14:31.475Z,27.43
2023-01-23T13:17:49.334Z,25.20
2023-01-23T13:21:16.449Z,27.50
2023-01-23T13:25:03.363Z,26.33
2023-01-23T13:28:44.592Z,23.93
2023-01-23T13:31:51.705Z,23.07
2023-01-23T13:34:56.383Z,22.77
2023-01-23T13:38:00.367Z,24.13
2023-01-23T13:41:39.091Z,26.70
2023-01-23T13:45:27.241Z,24.03
2023-01-23T14:21:18.705Z,22.23
2023-01-23T14:24:25.069Z,25.57
2023-01-23T14:27:52.286Z,23.03
2023-01-23T14:31:06.215Z,22.27
2023-01-23T14:34:18.997Z,19.53
2023-01-23T14:37:26.901Z,22.67
2023-01-23T14:40:40.077Z,21.57
2023-01-23T14:43:51.689Z,22.83
2023-01-23T14:47:04.184Z,22.80
2023-01-23T14:50:23.173Z,27.13
2023-01-23T14:53:30.755Z,26.27
2023-01-23T14:56:39.311Z,20.97
2023-01-23T14:59:50.680Z,23.50
2023-01-23T15:02:57.307Z,22.83
2023-01-23T15:06:09.333Z,23.47
2023-01-23T15:09:18.885Z,23.03
2023-01-23T15:12:25.001Z,22.37
2023-01-23T15:15:31.202Z,21.77
2023-01-23T15:18:37.597Z,22.57
2023-01-23T15:21:43.864Z,23.90
2023-01-23T15:24:50.655Z,23.30
2023-01-23T15:27:58.952Z,22.10
2023-01-23T15:31:05.135Z,21.33
2023-01-23T15:34:27.873Z,21.67
2023-01-23T15:37:31.060Z,25.00
2023-01-23T15:40:36.742Z,22.97
2023-01-23T15:43:39.865Z,23.53
2023-01-23T15:46:52.264Z,26.17
2023-01-23T15:49:55.587Z,25.47
2023-01-23T15:52:58.774Z,20.83
2023-01-23T15:56:05.030Z,24.53
2023-01-23T15:59:14.578Z,23.73
2023-01-23T16:02:30.752Z,27.60
2023-01-23T16:05:37.227Z,25.47
2023-01-23T16:08:43.664Z,26.23
2023-01-23T16:11:47.064Z,23.77
2023-01-23T16:14:50.108Z,28.40
2023-01-23T16:17:55.231Z,23.93
2023-01-23T16:21:00.971Z,22.43
2023-01-23T16:24:11.349Z,24.00
2023-01-23T16:27:31.015Z,26.63
2023-01-23T16:31:08.269Z,26.37
2023-01-23T16:34:24.067Z,22.77
2023-01-23T16:37:30.794Z,21.17
2023-01-23T16:40:38.106Z,22.90
2023-01-23T16:44:20.183Z,26.73
2023-01-23T16:47:31.781Z,27.07
2023-01-23T16:51:18.923Z,25.00
2023-01-23T16:54:31.532Z,23.10
2023-01-23T16:57:45.098Z,22.70
2023-01-23T17:01:02.818Z,25.93
2023-01-23T17:04:07.985Z,25.37
2023-01-23T17:07:26.342Z,24.90
2023-01-23T17:10:45.621Z,25.67
2023-01-23T17:13:56.033Z,25.33
2023-01-23T17:17:07.442Z,25.07
2023-01-23T17:20:15.143Z,28.20
2023-01-23T17:23:20.725Z,26.73
2023-01-23T17:26:25.284Z,25.17
2023-01-23T17:29:31.824Z,25.07
2023-01-23T17:32:47.547Z,30.57
2023-01-23T17:35:56.266Z,28.47
2023-01-23T17:39:07.721Z,26.37
2023-01-23T17:42:16.524Z,23.93
2023-01-23T17:45:26.733Z,25.03
2023-01-23T17:48:36.420Z,25.93
2023-01-23T17:51:46.101Z,28.83
2023-01-23T17:54:51.270Z,27.50
2023-01-23T17:57:54.760Z,26.57
2023-01-23T18:00:59.435Z,24.23
2023-01-23T18:04:12.360Z,28.17
2023-01-23T18:07:16.117Z,24.00
2023-01-23T18:10:22.631Z,24.80
2023-01-23T18:13:37.924Z,23.03
2023-01-23T18:16:45.647Z,24.73
2023-01-23T18:19:52.119Z,23.93
2023-01-23T18:22:56.824Z,29.43
2023-01-23T18:26:22.159Z,25.37
2023-01-23T18:30:51.144Z,29.13
2023-01-23T18:34:34.501Z,24.23
2023-01-23T18:37:57.460Z,23.77
2023-01-23T18:41:15.371Z,26.03
2023-01-23T18:44:31.417Z,27.93
2023-01-23T18:47:38.103Z,27.77
2023-01-23T18:50:49.151Z,23.70
2023-01-23T18:54:07.552Z,28.00
2023-01-23T18:57:58.143Z,25.43
2023-01-23T19:01:26.887Z,24.90
2023-01-23T19:04:45.952Z,24.13
2023-01-23T19:08:01.788Z,22.30
2023-01-23T19:11:20.347Z,24.43
2023-01-23T19:15:05.833Z,24.40
2023-01-23T19:18:39.220Z,26.60
2023-01-23T19:21:46.703Z,25.57
2023-01-23T19:24:52.732Z,22.77
2023-01-23T19:27:58.614Z,28.23
2023-01-23T19:31:09.745Z,26.80
2023-01-23T19:34:12.983Z,24.80
2023-01-23T19:37:15.995Z,22.50
2023-01-23T19:40:21.374Z,22.77
2023-01-23T19:43:28.097Z,22.43
2023-01-23T19:46:35.845Z,22.70
2023-01-23T19:49:39.169Z,23.87
2023-01-23T19:52:45.414Z,23.77
2023-01-23T19:55:48.428Z,20.80
2023-01-23T19:58:51.757Z,20.43
2023-01-23T20:01:56.396Z,23.13
2023-01-23T20:04:59.639Z,23.53
2023-01-23T20:08:08.411Z,21.60
2023-01-23T20:11:13.015Z,23.97
2023-01-23T20:14:23.599Z,19.07
2023-01-23T20:17:28.859Z,22.80
2023-01-23T20:20:32.282Z,24.43
2023-01-23T20:23:35.503Z,21.83
2023-01-23T20:26:39.259Z,21.07
2023-01-23T20:29:42.543Z,18.83
2023-01-23T20:32:46.914Z,21.43
2023-01-23T20:35:52.676Z,23.43
2023-01-23T20:38:58.468Z,22.53
2023-01-23T20:42:02.065Z,21.33
2023-01-23T20:45:07.215Z,23.70
2023-01-23T20:48:11.577Z,20.93
2023-01-23T20:51:17.104Z,21.20
2023-01-23T20:54:21.749Z,20.73
2023-01-23T20:57:45.499Z,23.03
2023-01-23T21:00:49.130Z,22.17
2023-01-23T21:03:53.951Z,24.07
2023-01-23T21:06:57.608Z,24.23
2023-01-23T21:10:00.708Z,20.90
2023-01-23T21:13:03.708Z,24.13
2023-01-23T21:16:09.883Z,23.17
2023-01-23T21:19:14.864Z,22.80
2023-01-23T21:22:18.665Z,23.43
2023-01-23T21:25:22.755Z,23.40
2023-01-23T21:28:26.554Z,27.50
2023-01-23T21:31:33.756Z,25.97
2023-01-23T21:34:38.555Z,22.83
2023-01-23T21:37:43.217Z,24.17
2023-01-23T21:40:46.587Z,22.03
2023-01-23T21:43:50.475Z,25.50
2023-01-23T21:46:56.548Z,26.30
2023-01-23T21:50:00.954Z,25.57
2023-01-23T21:53:04.276Z,28.83
2023-01-23T21:56:09.723Z,24.17
2023-01-23T21:59:12.972Z,25.60
2023-01-23T22:02:16.987Z,25.17
2023-01-23T22:05:22.007Z,23.13
2023-01-23T22:08:25.625Z,23.30
2023-01-23T22:11:28.665Z,27.03
2023-01-23T22:14:32.403Z,24.10
2023-01-23T22:17:35.964Z,25.20
2023-01-23T22:20:42.025Z,25.90
2023-01-23T22:23:45.559Z,23.70
2023-01-23T22:26:51.489Z,28.60
2023-01-23T22:29:55.239Z,27.00
2023-01-23T22:32:58.652Z,27.00
2023-01-23T22:36:08.080Z,28.23
2023-01-23T22:39:20.166Z,25.97
2023-01-23T22:42:24.903Z,21.77
2023-01-23T22:45:29.917Z,27.97
2023-01-23T22:48:34.676Z,29.10
2023-01-23T22:51:39.156Z,29.23
2023-01-23T22:54:42.966Z,29.83
2023-01-23T22:57:46.394Z,34.53
2023-01-23T23:00:52.382Z,31.13
2023-01-23T23:03:59.524Z,29.00
2023-01-23T23:07:03.942Z,29.53
2023-01-23T23:10:14.166Z,29.43
2023-01-23T23:13:18.699Z,33.07
2023-01-23T23:16:25.894Z,32.47
2023-01-23T23:19:29.031Z,31.37
2023-01-23T23:22:35.588Z,35.50
2023-01-23T23:25:38.963Z,31.43
2023-01-23T23:28:42.958Z,31.67
2023-01-23T23:31:47.110Z,35.43
2023-01-23T23:34:50.287Z,31.67
2023-01-23T23:37:54.863Z,32.90
2023-01-23T23:41:02.311Z,30.47
2023-01-23T23:44:05.664Z,34.90
2023-01-23T23:47:13.685Z,33.60
2023-01-23T23:50:18.002Z,34.03
2023-01-23T23:53:23.679Z,34.03
2023-01-23T23:56:32.151Z,37.33
2023-01-23T23:59:35.281Z,34.87
